sensor_id;sensor_type;location;lat;lon;timestamp;P1;durP1;ratioP1;P2;durP2;ratioP2
40052;SDS011;25758;48.200;16.338;2022-09-16T00:00:22;5.10;;;0.88;;
40052;SDS011;25758;48.200;16.338;2022-09-16T00:02:50;1.67;;;0.85;;
40052;SDS011;25758;48.200;16.338;2022-09-16T00:05:17;2.03;;;0.90;;
40052;SDS011;25758;48.200;16.338;2022-09-16T00:07:43;5.90;;;0.63;;
40052;SDS011;25758;48.200;16.338;2022-09-16T00:10:09;1.80;;;0.50;;
40052;SDS011;25758;48.200;16.338;2022-09-16T00:12:35;1.70;;;0.70;;
40052;SDS011;25758;48.200;16.338;2022-09-16T00:15:01;3.15;;;0.90;;
40052;SDS011;25758;48.200;16.338;2022-09-16T00:17:28;1.20;;;0.70;;
40052;SDS011;25758;48.200;16.338;2022-09-16T00:19:55;2.85;;;0.98;;
40052;SDS011;25758;48.200;16.338;2022-09-16T00:22:22;2.65;;;0.68;;
40052;SDS011;25758;48.200;16.338;2022-09-16T00:24:48;4.38;;;1.10;;
40052;SDS011;25758;48.200;16.338;2022-09-16T00:27:14;3.05;;;0.70;;
40052;SDS011;25758;48.200;16.338;2022-09-16T00:29:40;2.85;;;1.10;;
40052;SDS011;25758;48.200;16.338;2022-09-16T00:32:06;3.58;;;1.10;;
40052;SDS011;25758;48.200;16.338;2022-09-16T00:34:31;1.67;;;1.05;;
40052;SDS011;25758;48.200;16.338;2022-09-16T00:36:57;4.38;;;1.00;;
40052;SDS011;25758;48.200;16.338;2022-09-16T00:39:23;2.65;;;1.02;;
40052;SDS011;25758;48.200;16.338;2022-09-16T00:41:49;4.38;;;1.00;;
40052;SDS011;25758;48.200;16.338;2022-09-16T00:49:51;2.25;;;1.42;;
40052;SDS011;25758;48.200;16.338;2022-09-16T00:52:20;2.83;;;1.13;;
40052;SDS011;25758;48.200;16.338;2022-09-16T00:54:46;5.50;;;1.40;;
40052;SDS011;25758;48.200;16.338;2022-09-16T00:57:12;1.73;;;1.15;;
40052;SDS011;25758;48.200;16.338;2022-09-16T00:59:44;2.40;;;1.38;;
40052;SDS011;25758;48.200;16.338;2022-09-16T01:02:15;2.15;;;1.30;;
40052;SDS011;25758;48.200;16.338;2022-09-16T01:04:45;2.83;;;1.58;;
40052;SDS011;25758;48.200;16.338;2022-09-16T01:07:34;3.38;;;1.30;;
40052;SDS011;25758;48.200;16.338;2022-09-16T01:10:07;5.15;;;1.40;;
40052;SDS011;25758;48.200;16.338;2022-09-16T01:12:33;3.20;;;1.40;;
40052;SDS011;25758;48.200;16.338;2022-09-16T01:15:00;3.90;;;1.45;;
40052;SDS011;25758;48.200;16.338;2022-09-16T01:23:54;2.80;;;0.90;;
40052;SDS011;25758;48.200;16.338;2022-09-16T01:32:45;3.22;;;1.50;;
40052;SDS011;25758;48.200;16.338;2022-09-16T01:37:42;6.07;;;1.48;;
40052;SDS011;25758;48.200;16.338;2022-09-16T01:48:18;1.60;;;1.10;;
40052;SDS011;25758;48.200;16.338;2022-09-16T01:53:36;4.85;;;1.73;;
40052;SDS011;25758;48.200;16.338;2022-09-16T01:56:09;3.40;;;0.80;;
40052;SDS011;25758;48.200;16.338;2022-09-16T01:58:40;1.60;;;1.08;;
40052;SDS011;25758;48.200;16.338;2022-09-16T02:01:23;3.20;;;1.55;;
40052;SDS011;25758;48.200;16.338;2022-09-16T02:03:55;6.93;;;1.83;;
40052;SDS011;25758;48.200;16.338;2022-09-16T02:06:26;3.10;;;1.20;;
40052;SDS011;25758;48.200;16.338;2022-09-16T02:08:54;4.63;;;1.55;;
40052;SDS011;25758;48.200;16.338;2022-09-16T02:11:23;5.60;;;1.77;;
40052;SDS011;25758;48.200;16.338;2022-09-16T02:19:18;6.38;;;1.77;;
40052;SDS011;25758;48.200;16.338;2022-09-16T02:21:48;2.45;;;1.63;;
40052;SDS011;25758;48.200;16.338;2022-09-16T02:24:17;3.50;;;2.25;;
40052;SDS011;25758;48.200;16.338;2022-09-16T02:26:47;5.97;;;1.95;;
40052;SDS011;25758;48.200;16.338;2022-09-16T02:29:19;2.83;;;1.80;;
40052;SDS011;25758;48.200;16.338;2022-09-16T02:31:48;5.00;;;2.10;;
40052;SDS011;25758;48.200;16.338;2022-09-16T02:34:23;4.97;;;2.17;;
40052;SDS011;25758;48.200;16.338;2022-09-16T02:36:56;3.75;;;1.60;;
40052;SDS011;25758;48.200;16.338;2022-09-16T02:39:28;5.28;;;2.38;;
40052;SDS011;25758;48.200;16.338;2022-09-16T02:41:58;6.07;;;2.03;;
40052;SDS011;25758;48.200;16.338;2022-09-16T02:44:24;2.97;;;2.17;;
40052;SDS011;25758;48.200;16.338;2022-09-16T02:46:58;3.63;;;2.30;;
40052;SDS011;25758;48.200;16.338;2022-09-16T02:52:35;3.72;;;2.33;;
40052;SDS011;25758;48.200;16.338;2022-09-16T02:57:52;6.07;;;2.10;;
40052;SDS011;25758;48.200;16.338;2022-09-16T03:00:18;2.97;;;2.00;;
40052;SDS011;25758;48.200;16.338;2022-09-16T03:02:44;4.00;;;2.28;;
40052;SDS011;25758;48.200;16.338;2022-09-16T03:05:10;7.22;;;2.05;;
40052;SDS011;25758;48.200;16.338;2022-09-16T03:07:36;6.18;;;2.20;;
40052;SDS011;25758;48.200;16.338;2022-09-16T03:10:05;4.95;;;2.50;;
40052;SDS011;25758;48.200;16.338;2022-09-16T03:21:12;3.80;;;2.50;;
40052;SDS011;25758;48.200;16.338;2022-09-16T03:24:16;3.78;;;2.22;;
40052;SDS011;25758;48.200;16.338;2022-09-16T03:32:21;4.05;;;2.63;;
40052;SDS011;25758;48.200;16.338;2022-09-16T03:37:31;10.48;;;3.33;;
40052;SDS011;25758;48.200;16.338;2022-09-16T03:40:00;4.22;;;2.67;;
40052;SDS011;25758;48.200;16.338;2022-09-16T03:42:37;5.20;;;3.20;;
40052;SDS011;25758;48.200;16.338;2022-09-16T03:45:04;6.50;;;2.92;;
40052;SDS011;25758;48.200;16.338;2022-09-16T03:47:30;7.55;;;3.13;;
40052;SDS011;25758;48.200;16.338;2022-09-16T03:49:56;4.57;;;3.00;;
40052;SDS011;25758;48.200;16.338;2022-09-16T03:52:22;4.45;;;2.90;;
40052;SDS011;25758;48.200;16.338;2022-09-16T03:54:48;10.25;;;3.28;;
40052;SDS011;25758;48.200;16.338;2022-09-16T03:57:13;7.65;;;2.85;;
40052;SDS011;25758;48.200;16.338;2022-09-16T03:59:39;8.07;;;3.13;;
40052;SDS011;25758;48.200;16.338;2022-09-16T04:02:05;6.65;;;2.92;;
40052;SDS011;25758;48.200;16.338;2022-09-16T04:04:31;6.40;;;2.88;;
40052;SDS011;25758;48.200;16.338;2022-09-16T04:06:57;7.28;;;2.58;;
40052;SDS011;25758;48.200;16.338;2022-09-16T04:09:22;6.40;;;2.80;;
40052;SDS011;25758;48.200;16.338;2022-09-16T04:11:48;4.53;;;2.90;;
40052;SDS011;25758;48.200;16.338;2022-09-16T04:14:14;10.55;;;5.68;;
40052;SDS011;25758;48.200;16.338;2022-09-16T04:16:40;6.45;;;4.35;;
40052;SDS011;25758;48.200;16.338;2022-09-16T04:19:05;5.60;;;3.55;;
40052;SDS011;25758;48.200;16.338;2022-09-16T04:21:31;6.10;;;4.20;;
40052;SDS011;25758;48.200;16.338;2022-09-16T04:23:57;7.30;;;4.82;;
40052;SDS011;25758;48.200;16.338;2022-09-16T04:26:23;4.93;;;3.63;;
40052;SDS011;25758;48.200;16.338;2022-09-16T04:28:51;7.30;;;3.33;;
40052;SDS011;25758;48.200;16.338;2022-09-16T04:31:18;11.32;;;5.65;;
40052;SDS011;25758;48.200;16.338;2022-09-16T04:33:44;13.95;;;5.57;;
40052;SDS011;25758;48.200;16.338;2022-09-16T04:36:10;7.25;;;4.53;;
40052;SDS011;25758;48.200;16.338;2022-09-16T04:38:38;6.88;;;3.75;;
40052;SDS011;25758;48.200;16.338;2022-09-16T04:41:06;4.80;;;3.40;;
40052;SDS011;25758;48.200;16.338;2022-09-16T04:43:32;3.90;;;2.67;;
40052;SDS011;25758;48.200;16.338;2022-09-16T04:45:57;3.85;;;2.85;;
40052;SDS011;25758;48.200;16.338;2022-09-16T04:48:24;6.07;;;3.70;;
40052;SDS011;25758;48.200;16.338;2022-09-16T04:50:50;7.38;;;3.17;;
40052;SDS011;25758;48.200;16.338;2022-09-16T04:53:17;5.05;;;3.15;;
40052;SDS011;25758;48.200;16.338;2022-09-16T04:55:43;3.60;;;2.95;;
40052;SDS011;25758;48.200;16.338;2022-09-16T04:58:09;4.43;;;3.42;;
40052;SDS011;25758;48.200;16.338;2022-09-16T05:00:35;6.07;;;2.67;;
40052;SDS011;25758;48.200;16.338;2022-09-16T05:03:01;5.68;;;3.08;;
40052;SDS011;25758;48.200;16.338;2022-09-16T05:05:26;7.13;;;4.00;;
40052;SDS011;25758;48.200;16.338;2022-09-16T05:07:52;4.03;;;2.83;;
40052;SDS011;25758;48.200;16.338;2022-09-16T05:10:18;3.83;;;2.70;;
40052;SDS011;25758;48.200;16.338;2022-09-16T05:12:43;8.57;;;4.13;;
40052;SDS011;25758;48.200;16.338;2022-09-16T05:15:09;7.10;;;2.70;;
40052;SDS011;25758;48.200;16.338;2022-09-16T05:17:35;6.95;;;3.55;;
40052;SDS011;25758;48.200;16.338;2022-09-16T05:20:00;10.63;;;4.10;;
40052;SDS011;25758;48.200;16.338;2022-09-16T05:22:26;7.18;;;3.63;;
40052;SDS011;25758;48.200;16.338;2022-09-16T05:24:52;5.38;;;2.92;;
40052;SDS011;25758;48.200;16.338;2022-09-16T05:27:17;6.13;;;3.35;;
40052;SDS011;25758;48.200;16.338;2022-09-16T05:29:43;5.00;;;3.20;;
40052;SDS011;25758;48.200;16.338;2022-09-16T05:32:08;4.78;;;3.03;;
40052;SDS011;25758;48.200;16.338;2022-09-16T05:34:34;6.38;;;2.28;;
40052;SDS011;25758;48.200;16.338;2022-09-16T05:37:01;6.63;;;2.65;;
40052;SDS011;25758;48.200;16.338;2022-09-16T05:39:27;7.25;;;3.25;;
40052;SDS011;25758;48.200;16.338;2022-09-16T05:41:53;6.07;;;2.58;;
40052;SDS011;25758;48.200;16.338;2022-09-16T05:44:21;10.48;;;3.72;;
40052;SDS011;25758;48.200;16.338;2022-09-16T05:46:47;6.15;;;2.67;;
40052;SDS011;25758;48.200;16.338;2022-09-16T05:49:12;5.65;;;3.35;;
40052;SDS011;25758;48.200;16.338;2022-09-16T05:51:44;5.80;;;2.83;;
40052;SDS011;25758;48.200;16.338;2022-09-16T05:54:10;5.00;;;2.45;;
40052;SDS011;25758;48.200;16.338;2022-09-16T05:56:36;4.60;;;2.25;;
40052;SDS011;25758;48.200;16.338;2022-09-16T05:59:02;4.40;;;2.25;;
40052;SDS011;25758;48.200;16.338;2022-09-16T06:01:29;3.90;;;2.58;;
40052;SDS011;25758;48.200;16.338;2022-09-16T06:03:59;5.65;;;2.50;;
40052;SDS011;25758;48.200;16.338;2022-09-16T06:09:03;4.18;;;1.92;;
40052;SDS011;25758;48.200;16.338;2022-09-16T06:11:41;4.07;;;2.30;;
40052;SDS011;25758;48.200;16.338;2022-09-16T06:14:09;4.20;;;2.22;;
40052;SDS011;25758;48.200;16.338;2022-09-16T06:16:36;8.52;;;2.40;;
40052;SDS011;25758;48.200;16.338;2022-09-16T06:19:03;3.33;;;2.08;;
40052;SDS011;25758;48.200;16.338;2022-09-16T06:21:30;5.57;;;2.00;;
40052;SDS011;25758;48.200;16.338;2022-09-16T06:23:56;9.05;;;2.90;;
40052;SDS011;25758;48.200;16.338;2022-09-16T06:26:23;4.63;;;2.90;;
40052;SDS011;25758;48.200;16.338;2022-09-16T06:28:50;4.47;;;2.03;;
40052;SDS011;25758;48.200;16.338;2022-09-16T06:31:21;6.22;;;2.75;;
40052;SDS011;25758;48.200;16.338;2022-09-16T06:33:51;3.58;;;2.30;;
40052;SDS011;25758;48.200;16.338;2022-09-16T06:36:22;4.22;;;2.40;;
40052;SDS011;25758;48.200;16.338;2022-09-16T06:38:49;2.65;;;2.10;;
40052;SDS011;25758;48.200;16.338;2022-09-16T06:41:16;7.18;;;2.25;;
40052;SDS011;25758;48.200;16.338;2022-09-16T06:43:43;4.60;;;2.35;;
40052;SDS011;25758;48.200;16.338;2022-09-16T06:46:10;6.10;;;3.13;;
40052;SDS011;25758;48.200;16.338;2022-09-16T06:48:38;5.22;;;2.42;;
40052;SDS011;25758;48.200;16.338;2022-09-16T06:51:06;3.90;;;1.70;;
40052;SDS011;25758;48.200;16.338;2022-09-16T06:53:34;6.60;;;3.53;;
40052;SDS011;25758;48.200;16.338;2022-09-16T06:56:00;5.40;;;2.17;;
40052;SDS011;25758;48.200;16.338;2022-09-16T06:58:31;3.88;;;2.38;;
40052;SDS011;25758;48.200;16.338;2022-09-16T07:00:58;3.03;;;1.63;;
40052;SDS011;25758;48.200;16.338;2022-09-16T07:03:24;6.47;;;2.38;;
40052;SDS011;25758;48.200;16.338;2022-09-16T07:05:56;3.53;;;1.42;;
40052;SDS011;25758;48.200;16.338;2022-09-16T07:08:24;8.70;;;1.63;;
40052;SDS011;25758;48.200;16.338;2022-09-16T07:11:23;2.40;;;1.40;;
40052;SDS011;25758;48.200;16.338;2022-09-16T07:13:43;1.90;;;1.60;;
40052;SDS011;25758;48.200;16.338;2022-09-16T07:16:12;6.70;;;1.98;;
40052;SDS011;25758;48.200;16.338;2022-09-16T07:18:39;10.20;;;2.65;;
40052;SDS011;25758;48.200;16.338;2022-09-16T07:21:06;3.47;;;1.80;;
40052;SDS011;25758;48.200;16.338;2022-09-16T07:23:40;4.05;;;1.83;;
40052;SDS011;25758;48.200;16.338;2022-09-16T07:26:14;4.90;;;1.85;;
40052;SDS011;25758;48.200;16.338;2022-09-16T07:28:45;7.45;;;1.65;;
40052;SDS011;25758;48.200;16.338;2022-09-16T07:31:16;4.22;;;1.60;;
40052;SDS011;25758;48.200;16.338;2022-09-16T07:33:45;10.00;;;2.35;;
40052;SDS011;25758;48.200;16.338;2022-09-16T07:36:13;6.00;;;2.25;;
40052;SDS011;25758;48.200;16.338;2022-09-16T07:38:41;9.82;;;1.88;;
40052;SDS011;25758;48.200;16.338;2022-09-16T07:41:08;3.65;;;1.60;;
40052;SDS011;25758;48.200;16.338;2022-09-16T07:43:35;3.28;;;1.58;;
40052;SDS011;25758;48.200;16.338;2022-09-16T07:46:01;4.78;;;1.83;;
40052;SDS011;25758;48.200;16.338;2022-09-16T07:48:30;3.75;;;2.05;;
40052;SDS011;25758;48.200;16.338;2022-09-16T07:50:57;8.60;;;2.92;;
40052;SDS011;25758;48.200;16.338;2022-09-16T07:53:25;3.65;;;1.73;;
40052;SDS011;25758;48.200;16.338;2022-09-16T07:55:52;6.47;;;2.03;;
40052;SDS011;25758;48.200;16.338;2022-09-16T07:58:18;3.83;;;1.40;;
40052;SDS011;25758;48.200;16.338;2022-09-16T08:00:44;3.20;;;1.30;;
40052;SDS011;25758;48.200;16.338;2022-09-16T08:03:11;6.88;;;1.20;;
40052;SDS011;25758;48.200;16.338;2022-09-16T08:05:36;3.20;;;1.38;;
40052;SDS011;25758;48.200;16.338;2022-09-16T08:08:02;9.88;;;1.40;;
40052;SDS011;25758;48.200;16.338;2022-09-16T08:10:28;5.15;;;1.35;;
40052;SDS011;25758;48.200;16.338;2022-09-16T08:12:54;3.45;;;1.27;;
40052;SDS011;25758;48.200;16.338;2022-09-16T08:15:20;6.82;;;1.95;;
40052;SDS011;25758;48.200;16.338;2022-09-16T08:17:45;2.78;;;1.10;;
40052;SDS011;25758;48.200;16.338;2022-09-16T08:20:11;2.78;;;1.30;;
40052;SDS011;25758;48.200;16.338;2022-09-16T08:22:36;6.00;;;1.60;;
40052;SDS011;25758;48.200;16.338;2022-09-16T08:25:02;15.98;;;8.00;;
40052;SDS011;25758;48.200;16.338;2022-09-16T08:27:28;3.15;;;1.58;;
40052;SDS011;25758;48.200;16.338;2022-09-16T08:29:54;2.97;;;1.52;;
40052;SDS011;25758;48.200;16.338;2022-09-16T08:32:19;2.33;;;1.10;;
40052;SDS011;25758;48.200;16.338;2022-09-16T08:34:45;4.50;;;1.77;;
40052;SDS011;25758;48.200;16.338;2022-09-16T08:37:11;2.95;;;1.60;;
40052;SDS011;25758;48.200;16.338;2022-09-16T08:39:37;6.28;;;3.25;;
40052;SDS011;25758;48.200;16.338;2022-09-16T08:47:45;2.08;;;1.02;;
40052;SDS011;25758;48.200;16.338;2022-09-16T08:55:57;3.83;;;1.05;;
40052;SDS011;25758;48.200;16.338;2022-09-16T08:58:37;4.30;;;1.20;;
40052;SDS011;25758;48.200;16.338;2022-09-16T09:01:17;2.80;;;1.35;;
40052;SDS011;25758;48.200;16.338;2022-09-16T09:03:55;2.58;;;0.70;;
40052;SDS011;25758;48.200;16.338;2022-09-16T09:12:05;2.05;;;1.35;;
40052;SDS011;25758;48.200;16.338;2022-09-16T09:17:37;3.13;;;1.00;;
40052;SDS011;25758;48.200;16.338;2022-09-16T09:31:30;3.10;;;1.15;;
40052;SDS011;25758;48.200;16.338;2022-09-16T09:33:51;4.55;;;1.52;;
40052;SDS011;25758;48.200;16.338;2022-09-16T09:36:37;10.10;;;2.97;;
40052;SDS011;25758;48.200;16.338;2022-09-16T09:39:15;5.45;;;1.55;;
40052;SDS011;25758;48.200;16.338;2022-09-16T09:41:51;5.03;;;1.17;;
40052;SDS011;25758;48.200;16.338;2022-09-16T09:47:24;5.13;;;1.42;;
40052;SDS011;25758;48.200;16.338;2022-09-16T09:49:55;3.35;;;1.85;;
40052;SDS011;25758;48.200;16.338;2022-09-16T09:52:29;4.85;;;1.50;;
40052;SDS011;25758;48.200;16.338;2022-09-16T09:54:55;6.68;;;1.90;;
40052;SDS011;25758;48.200;16.338;2022-09-16T09:57:38;6.80;;;1.90;;
40052;SDS011;25758;48.200;16.338;2022-09-16T10:02:45;2.90;;;1.80;;
40052;SDS011;25758;48.200;16.338;2022-09-16T10:05:19;4.47;;;2.00;;
40052;SDS011;25758;48.200;16.338;2022-09-16T10:07:47;4.53;;;2.10;;
40052;SDS011;25758;48.200;16.338;2022-09-16T10:10:15;8.82;;;2.50;;
40052;SDS011;25758;48.200;16.338;2022-09-16T10:12:46;4.07;;;2.40;;
40052;SDS011;25758;48.200;16.338;2022-09-16T10:15:22;3.90;;;2.33;;
40052;SDS011;25758;48.200;16.338;2022-09-16T10:17:52;5.57;;;2.67;;
40052;SDS011;25758;48.200;16.338;2022-09-16T10:20:40;5.13;;;2.38;;
40052;SDS011;25758;48.200;16.338;2022-09-16T10:25:40;8.98;;;4.18;;
40052;SDS011;25758;48.200;16.338;2022-09-16T10:31:05;5.22;;;2.88;;
40052;SDS011;25758;48.200;16.338;2022-09-16T10:33:33;4.63;;;2.70;;
40052;SDS011;25758;48.200;16.338;2022-09-16T10:36:10;5.55;;;2.83;;
40052;SDS011;25758;48.200;16.338;2022-09-16T10:38:47;7.65;;;3.30;;
40052;SDS011;25758;48.200;16.338;2022-09-16T10:41:25;6.78;;;3.80;;
40052;SDS011;25758;48.200;16.338;2022-09-16T10:44:05;8.88;;;5.82;;
40052;SDS011;25758;48.200;16.338;2022-09-16T10:46:37;4.13;;;2.85;;
40052;SDS011;25758;48.200;16.338;2022-09-16T10:49:19;5.60;;;3.40;;
40052;SDS011;25758;48.200;16.338;2022-09-16T10:52:05;7.90;;;4.03;;
40052;SDS011;25758;48.200;16.338;2022-09-16T10:54:41;7.13;;;3.03;;
40052;SDS011;25758;48.200;16.338;2022-09-16T11:00:03;5.40;;;3.72;;
40052;SDS011;25758;48.200;16.338;2022-09-16T11:10:45;9.10;;;3.30;;
40052;SDS011;25758;48.200;16.338;2022-09-16T11:16:54;6.43;;;3.45;;
40052;SDS011;25758;48.200;16.338;2022-09-16T11:20:11;7.10;;;3.08;;
40052;SDS011;25758;48.200;16.338;2022-09-16T11:24:58;7.75;;;3.30;;
40052;SDS011;25758;48.200;16.338;2022-09-16T11:30:28;9.77;;;2.63;;
40052;SDS011;25758;48.200;16.338;2022-09-16T11:42:16;7.15;;;3.40;;
40052;SDS011;25758;48.200;16.338;2022-09-16T11:44:56;4.47;;;2.78;;
40052;SDS011;25758;48.200;16.338;2022-09-16T11:47:52;8.02;;;3.58;;
40052;SDS011;25758;48.200;16.338;2022-09-16T11:50:37;4.97;;;3.23;;
40052;SDS011;25758;48.200;16.338;2022-09-16T12:04:25;5.43;;;2.40;;
40052;SDS011;25758;48.200;16.338;2022-09-16T12:12:06;6.70;;;3.10;;
40052;SDS011;25758;48.200;16.338;2022-09-16T12:15:23;4.00;;;2.63;;
40052;SDS011;25758;48.200;16.338;2022-09-16T12:17:32;5.50;;;3.30;;
40052;SDS011;25758;48.200;16.338;2022-09-16T12:23:21;4.93;;;2.33;;
40052;SDS011;25758;48.200;16.338;2022-09-16T12:31:22;6.68;;;2.40;;
40052;SDS011;25758;48.200;16.338;2022-09-16T12:34:11;5.93;;;3.45;;
40052;SDS011;25758;48.200;16.338;2022-09-16T12:39:44;2.38;;;1.58;;
40052;SDS011;25758;48.200;16.338;2022-09-16T12:45:19;4.22;;;1.48;;
40052;SDS011;25758;48.200;16.338;2022-09-16T12:48:00;4.53;;;1.58;;
40052;SDS011;25758;48.200;16.338;2022-09-16T12:50:49;4.63;;;1.90;;
40052;SDS011;25758;48.200;16.338;2022-09-16T13:01:55;9.02;;;2.97;;
40052;SDS011;25758;48.200;16.338;2022-09-16T13:04:42;3.15;;;2.17;;
40052;SDS011;25758;48.200;16.338;2022-09-16T13:07:21;3.85;;;2.25;;
40052;SDS011;25758;48.200;16.338;2022-09-16T13:09:59;3.95;;;2.13;;
40052;SDS011;25758;48.200;16.338;2022-09-16T13:12:29;3.92;;;2.30;;
40052;SDS011;25758;48.200;16.338;2022-09-16T13:14:59;4.20;;;1.95;;
40052;SDS011;25758;48.200;16.338;2022-09-16T13:23:06;3.38;;;1.50;;
40052;SDS011;25758;48.200;16.338;2022-09-16T13:30:56;7.13;;;2.47;;
40052;SDS011;25758;48.200;16.338;2022-09-16T13:33:39;4.33;;;2.07;;
40052;SDS011;25758;48.200;16.338;2022-09-16T13:36:30;5.72;;;1.95;;
40052;SDS011;25758;48.200;16.338;2022-09-16T13:38:58;3.22;;;1.60;;
40052;SDS011;25758;48.200;16.338;2022-09-16T13:44:01;4.10;;;1.92;;
40052;SDS011;25758;48.200;16.338;2022-09-16T13:46:49;3.00;;;1.77;;
40052;SDS011;25758;48.200;16.338;2022-09-16T13:49:17;3.95;;;1.95;;
40052;SDS011;25758;48.200;16.338;2022-09-16T13:51:46;2.65;;;1.60;;
40052;SDS011;25758;48.200;16.338;2022-09-16T14:11:08;3.45;;;1.90;;
40052;SDS011;25758;48.200;16.338;2022-09-16T14:13:46;1.88;;;1.20;;
40052;SDS011;25758;48.200;16.338;2022-09-16T14:16:16;4.13;;;1.83;;
40052;SDS011;25758;48.200;16.338;2022-09-16T14:18:47;3.55;;;2.17;;
40052;SDS011;25758;48.200;16.338;2022-09-16T14:21:25;3.83;;;1.90;;
40052;SDS011;25758;48.200;16.338;2022-09-16T14:23:50;3.65;;;1.88;;
40052;SDS011;25758;48.200;16.338;2022-09-16T14:26:17;6.07;;;2.22;;
40052;SDS011;25758;48.200;16.338;2022-09-16T14:28:45;4.68;;;1.63;;
40052;SDS011;25758;48.200;16.338;2022-09-16T14:31:15;6.68;;;1.30;;
40052;SDS011;25758;48.200;16.338;2022-09-16T14:34:04;4.40;;;1.88;;
40052;SDS011;25758;48.200;16.338;2022-09-16T14:36:34;4.68;;;1.77;;
40052;SDS011;25758;48.200;16.338;2022-09-16T14:39:03;6.88;;;2.08;;
40052;SDS011;25758;48.200;16.338;2022-09-16T14:41:39;3.88;;;2.15;;
40052;SDS011;25758;48.200;16.338;2022-09-16T14:46:54;5.50;;;1.92;;
40052;SDS011;25758;48.200;16.338;2022-09-16T14:49:21;4.07;;;1.88;;
40052;SDS011;25758;48.200;16.338;2022-09-16T14:51:50;3.88;;;1.83;;
40052;SDS011;25758;48.200;16.338;2022-09-16T14:54:21;3.47;;;1.85;;
40052;SDS011;25758;48.200;16.338;2022-09-16T14:56:54;4.78;;;1.90;;
40052;SDS011;25758;48.200;16.338;2022-09-16T14:59:21;5.05;;;2.85;;
40052;SDS011;25758;48.200;16.338;2022-09-16T15:01:50;2.67;;;1.63;;
40052;SDS011;25758;48.200;16.338;2022-09-16T15:04:18;4.43;;;1.70;;
40052;SDS011;25758;48.200;16.338;2022-09-16T15:06:53;4.28;;;2.47;;
40052;SDS011;25758;48.200;16.338;2022-09-16T15:09:25;4.28;;;2.17;;
40052;SDS011;25758;48.200;16.338;2022-09-16T15:12:01;4.55;;;1.70;;
40052;SDS011;25758;48.200;16.338;2022-09-16T15:14:27;3.80;;;1.40;;
40052;SDS011;25758;48.200;16.338;2022-09-16T15:16:57;4.00;;;1.38;;
40052;SDS011;25758;48.200;16.338;2022-09-16T15:19:32;5.30;;;1.73;;
40052;SDS011;25758;48.200;16.338;2022-09-16T15:22:00;3.33;;;1.70;;
40052;SDS011;25758;48.200;16.338;2022-09-16T15:24:28;4.00;;;1.70;;
40052;SDS011;25758;48.200;16.338;2022-09-16T15:26:56;3.78;;;1.60;;
40052;SDS011;25758;48.200;16.338;2022-09-16T15:31:48;3.25;;;2.03;;
40052;SDS011;25758;48.200;16.338;2022-09-16T15:34:18;4.45;;;2.60;;
40052;SDS011;25758;48.200;16.338;2022-09-16T15:44:33;4.72;;;1.77;;
40052;SDS011;25758;48.200;16.338;2022-09-16T15:47:00;4.45;;;1.73;;
40052;SDS011;25758;48.200;16.338;2022-09-16T15:49:26;3.95;;;2.03;;
40052;SDS011;25758;48.200;16.338;2022-09-16T15:51:55;4.05;;;1.70;;
40052;SDS011;25758;48.200;16.338;2022-09-16T15:54:36;5.13;;;1.48;;
40052;SDS011;25758;48.200;16.338;2022-09-16T16:05:11;4.53;;;2.13;;
40052;SDS011;25758;48.200;16.338;2022-09-16T16:10:11;5.22;;;2.25;;
40052;SDS011;25758;48.200;16.338;2022-09-16T16:12:40;2.53;;;2.10;;
40052;SDS011;25758;48.200;16.338;2022-09-16T16:15:09;4.63;;;1.85;;
40052;SDS011;25758;48.200;16.338;2022-09-16T16:17:35;4.97;;;2.15;;
40052;SDS011;25758;48.200;16.338;2022-09-16T16:20:01;2.58;;;1.95;;
40052;SDS011;25758;48.200;16.338;2022-09-16T16:22:27;4.40;;;2.50;;
40052;SDS011;25758;48.200;16.338;2022-09-16T16:24:52;3.17;;;2.35;;
40052;SDS011;25758;48.200;16.338;2022-09-16T16:27:18;4.65;;;2.33;;
40052;SDS011;25758;48.200;16.338;2022-09-16T16:29:44;3.75;;;1.85;;
40052;SDS011;25758;48.200;16.338;2022-09-16T16:32:10;4.82;;;3.00;;
40052;SDS011;25758;48.200;16.338;2022-09-16T16:34:39;4.30;;;2.80;;
40052;SDS011;25758;48.200;16.338;2022-09-16T16:37:06;4.40;;;2.55;;
40052;SDS011;25758;48.200;16.338;2022-09-16T16:39:34;5.88;;;2.25;;
40052;SDS011;25758;48.200;16.338;2022-09-16T16:42:00;6.05;;;3.15;;
40052;SDS011;25758;48.200;16.338;2022-09-16T16:44:29;5.45;;;3.55;;
40052;SDS011;25758;48.200;16.338;2022-09-16T16:46:55;4.32;;;3.08;;
40052;SDS011;25758;48.200;16.338;2022-09-16T16:49:21;8.52;;;3.53;;
40052;SDS011;25758;48.200;16.338;2022-09-16T16:51:48;9.20;;;4.35;;
40052;SDS011;25758;48.200;16.338;2022-09-16T16:54:19;9.38;;;6.28;;
40052;SDS011;25758;48.200;16.338;2022-09-16T16:56:45;5.38;;;3.28;;
40052;SDS011;25758;48.200;16.338;2022-09-16T16:59:12;4.38;;;3.33;;
40052;SDS011;25758;48.200;16.338;2022-09-16T17:01:38;4.60;;;3.05;;
40052;SDS011;25758;48.200;16.338;2022-09-16T17:04:04;4.50;;;2.47;;
40052;SDS011;25758;48.200;16.338;2022-09-16T17:06:31;5.78;;;2.72;;
40052;SDS011;25758;48.200;16.338;2022-09-16T17:08:57;7.22;;;3.95;;
40052;SDS011;25758;48.200;16.338;2022-09-16T17:11:23;6.07;;;4.13;;
40052;SDS011;25758;48.200;16.338;2022-09-16T17:13:50;7.03;;;3.63;;
40052;SDS011;25758;48.200;16.338;2022-09-16T17:16:19;9.27;;;4.68;;
40052;SDS011;25758;48.200;16.338;2022-09-16T17:18:46;6.13;;;4.63;;
40052;SDS011;25758;48.200;16.338;2022-09-16T17:21:17;5.85;;;4.00;;
40052;SDS011;25758;48.200;16.338;2022-09-16T17:23:44;8.02;;;5.03;;
40052;SDS011;25758;48.200;16.338;2022-09-16T17:26:10;7.60;;;4.07;;
40052;SDS011;25758;48.200;16.338;2022-09-16T17:28:36;6.00;;;3.42;;
40052;SDS011;25758;48.200;16.338;2022-09-16T17:31:07;5.47;;;3.20;;
40052;SDS011;25758;48.200;16.338;2022-09-16T17:33:34;4.68;;;3.15;;
40052;SDS011;25758;48.200;16.338;2022-09-16T17:36:00;7.03;;;3.00;;
40052;SDS011;25758;48.200;16.338;2022-09-16T17:38:27;4.85;;;2.70;;
40052;SDS011;25758;48.200;16.338;2022-09-16T17:40:59;4.70;;;3.05;;
40052;SDS011;25758;48.200;16.338;2022-09-16T17:43:29;4.22;;;2.30;;
40052;SDS011;25758;48.200;16.338;2022-09-16T17:45:56;6.47;;;2.42;;
40052;SDS011;25758;48.200;16.338;2022-09-16T17:48:22;4.40;;;2.42;;
40052;SDS011;25758;48.200;16.338;2022-09-16T17:50:48;5.80;;;3.33;;
40052;SDS011;25758;48.200;16.338;2022-09-16T17:53:15;5.97;;;3.13;;
40052;SDS011;25758;48.200;16.338;2022-09-16T17:55:41;5.32;;;2.55;;
40052;SDS011;25758;48.200;16.338;2022-09-16T17:58:06;4.38;;;1.92;;
40052;SDS011;25758;48.200;16.338;2022-09-16T18:00:32;6.25;;;1.88;;
40052;SDS011;25758;48.200;16.338;2022-09-16T18:02:57;4.85;;;1.65;;
40052;SDS011;25758;48.200;16.338;2022-09-16T18:05:23;4.70;;;2.30;;
40052;SDS011;25758;48.200;16.338;2022-09-16T18:07:49;3.03;;;1.20;;
40052;SDS011;25758;48.200;16.338;2022-09-16T18:10:14;3.70;;;2.65;;
40052;SDS011;25758;48.200;16.338;2022-09-16T18:12:40;4.35;;;1.30;;
40052;SDS011;25758;48.200;16.338;2022-09-16T18:15:06;3.80;;;1.00;;
40052;SDS011;25758;48.200;16.338;2022-09-16T18:17:31;3.33;;;2.00;;
40052;SDS011;25758;48.200;16.338;2022-09-16T18:19:57;3.17;;;1.65;;
40052;SDS011;25758;48.200;16.338;2022-09-16T18:22:23;2.90;;;2.13;;
40052;SDS011;25758;48.200;16.338;2022-09-16T18:24:48;3.70;;;1.52;;
40052;SDS011;25758;48.200;16.338;2022-09-16T18:27:14;4.88;;;2.10;;
40052;SDS011;25758;48.200;16.338;2022-09-16T18:29:40;3.55;;;1.75;;
40052;SDS011;25758;48.200;16.338;2022-09-16T18:32:06;7.82;;;2.13;;
40052;SDS011;25758;48.200;16.338;2022-09-16T18:34:32;5.60;;;2.33;;